createdAt,value
2022-07-30T00:00:19.758Z,99.90
2022-07-30T00:02:52.577Z,99.90
2022-07-30T00:05:19.596Z,99.90
2022-07-30T00:07:46.437Z,99.90
2022-07-30T00:10:13.339Z,99.90
2022-07-30T00:12:40.251Z,99.90
2022-07-30T00:15:07.891Z,99.90
2022-07-30T00:17:34.730Z,99.90
2022-07-30T00:20:02.074Z,99.90
2022-07-30T00:22:31.142Z,99.90
2022-07-30T00:24:58.052Z,99.90
2022-07-30T00:27:25.547Z,99.90
2022-07-30T00:29:52.393Z,99.90
2022-07-30T00:32:19.417Z,99.90
2022-07-30T00:34:46.355Z,99.90
2022-07-30T00:37:13.208Z,99.90
2022-07-30T00:39:40.116Z,99.90
2022-07-30T00:42:07.249Z,99.90
2022-07-30T00:44:34.055Z,99.90
2022-07-30T00:47:01.247Z,99.90
2022-07-30T00:49:28.310Z,99.90
2022-07-30T00:51:55.609Z,99.90
2022-07-30T00:54:22.546Z,99.90
2022-07-30T00:56:49.832Z,99.90
2022-07-30T00:59:17.360Z,99.90
2022-07-30T01:01:44.235Z,99.90
2022-07-30T01:04:13.757Z,99.90
2022-07-30T01:06:40.756Z,99.90
2022-07-30T01:09:08.445Z,99.90
2022-07-30T01:11:40.540Z,99.90
2022-07-30T01:14:09.303Z,99.90
2022-07-30T01:16:38.399Z,99.90
2022-07-30T01:19:30.473Z,99.90
2022-07-30T01:22:16.448Z,99.90
2022-07-30T01:24:52.228Z,99.90
2022-07-30T01:27:20.860Z,99.90
2022-07-30T01:29:49.563Z,99.90
2022-07-30T01:32:19.808Z,99.90
2022-07-30T01:34:47.803Z,99.90
2022-07-30T01:37:16.849Z,99.90
2022-07-30T01:39:44.717Z,99.90
2022-07-30T01:42:13.677Z,99.90
2022-07-30T01:44:42.356Z,99.90
2022-07-30T01:47:11.461Z,99.90
2022-07-30T01:49:39.503Z,99.90
2022-07-30T01:52:08.356Z,99.90
2022-07-30T01:54:36.342Z,99.90
2022-07-30T01:57:04.977Z,99.90
2022-07-30T01:59:34.884Z,99.90
2022-07-30T02:02:02.208Z,99.90
2022-07-30T02:04:29.791Z,99.90
2022-07-30T02:07:02.792Z,99.90
2022-07-30T02:09:36.071Z,99.90
2022-07-30T02:12:23.361Z,99.90
2022-07-30T02:14:56.469Z,99.90
2022-07-30T02:17:30.475Z,99.90
2022-07-30T02:20:09.320Z,99.90
2022-07-30T02:22:42.677Z,99.90
2022-07-30T02:25:10.714Z,99.90
2022-07-30T02:27:40.528Z,99.90
2022-07-30T02:30:08.635Z,99.90
2022-07-30T02:32:39.570Z,99.90
2022-07-30T02:35:18.729Z,99.90
2022-07-30T02:37:48.342Z,99.90
2022-07-30T02:40:18.022Z,99.90
2022-07-30T02:42:46.933Z,99.90
2022-07-30T02:45:17.828Z,99.90
2022-07-30T02:47:53.556Z,99.90
2022-07-30T02:50:22.022Z,99.90
2022-07-30T02:52:50.398Z,99.90
2022-07-30T02:55:18.247Z,99.90
2022-07-30T02:57:47.272Z,99.90
2022-07-30T03:00:14.569Z,99.90
2022-07-30T03:02:43.742Z,99.90
2022-07-30T03:05:13.767Z,99.90
2022-07-30T03:07:41.282Z,99.90
2022-07-30T03:10:09.122Z,99.90
2022-07-30T03:12:37.940Z,99.90
2022-07-30T03:15:05.476Z,99.90
2022-07-30T03:17:38.789Z,99.90
2022-07-30T03:20:10.508Z,99.90
2022-07-30T03:22:42.261Z,99.90
2022-07-30T03:25:10.959Z,99.90
2022-07-30T03:27:38.418Z,99.90
2022-07-30T03:30:06.720Z,99.90
2022-07-30T03:32:35.943Z,99.90
2022-07-30T03:35:06.405Z,99.90
2022-07-30T03:37:39.163Z,99.90
2022-07-30T03:40:07.757Z,99.90
2022-07-30T03:42:35.580Z,99.90
2022-07-30T03:45:06.507Z,99.90
2022-07-30T03:47:36.655Z,99.90
2022-07-30T03:50:04.198Z,99.90
2022-07-30T03:52:34.646Z,99.90
2022-07-30T03:55:03.602Z,99.90
2022-07-30T03:57:30.805Z,99.90
2022-07-30T03:59:57.743Z,99.90
2022-07-30T04:02:25.003Z,99.90
2022-07-30T04:04:52.078Z,99.90
2022-07-30T04:07:18.904Z,99.90
2022-07-30T04:09:45.934Z,99.90
2022-07-30T04:12:13.927Z,99.90
2022-07-30T04:14:42.413Z,99.90
2022-07-30T04:17:22.976Z,99.90
2022-07-30T04:19:57.776Z,99.90
2022-07-30T04:22:30.429Z,99.90
2022-07-30T04:24:59.235Z,99.90
2022-07-30T04:27:27.123Z,99.90
2022-07-30T04:29:55.010Z,99.90
2022-07-30T04:32:22.485Z,99.90
2022-07-30T04:34:54.702Z,99.90
2022-07-30T04:37:24.295Z,99.90
2022-07-30T04:39:54.256Z,99.90
2022-07-30T04:42:21.926Z,99.90
2022-07-30T04:44:49.910Z,99.90
2022-07-30T04:47:17.802Z,99.90
2022-07-30T04:49:46.344Z,99.90
2022-07-30T04:52:14.874Z,99.90
2022-07-30T04:54:55.839Z,99.90
2022-07-30T04:57:24.657Z,99.90
2022-07-30T04:59:51.731Z,99.90
2022-07-30T05:02:20.877Z,99.90
2022-07-30T05:04:48.958Z,99.90
2022-07-30T05:07:18.198Z,99.90
2022-07-30T05:09:49.866Z,99.90
2022-07-30T05:12:16.800Z,99.90
2022-07-30T05:14:48.118Z,99.90
2022-07-30T05:17:15.182Z,99.90
2022-07-30T05:19:41.974Z,99.90
2022-07-30T05:22:08.781Z,99.90
2022-07-30T05:24:35.603Z,99.90
2022-07-30T05:27:02.823Z,99.90
2022-07-30T05:29:29.873Z,99.90
2022-07-30T05:31:56.931Z,99.90
2022-07-30T05:34:30.240Z,99.90
2022-07-30T05:36:57.056Z,99.90
2022-07-30T05:39:24.645Z,99.90
2022-07-30T05:41:51.436Z,99.90
2022-07-30T05:44:22.147Z,99.90
2022-07-30T05:46:50.861Z,99.90
2022-07-30T05:49:17.972Z,99.90
2022-07-30T05:51:45.109Z,99.90
2022-07-30T05:54:11.990Z,99.90
2022-07-30T05:56:40.849Z,99.90
2022-07-30T05:59:07.754Z,99.90
2022-07-30T06:01:34.625Z,99.90
2022-07-30T06:04:01.673Z,99.90
2022-07-30T06:06:28.519Z,99.90
2022-07-30T06:08:55.340Z,96.50
2022-07-30T06:11:22.467Z,96.80
2022-07-30T06:13:49.594Z,93.40
2022-07-30T06:16:16.686Z,95.50
2022-07-30T06:18:43.533Z,93.90
2022-07-30T06:21:10.400Z,90.50
2022-07-30T06:23:37.234Z,93.30
2022-07-30T06:26:04.153Z,90.80
2022-07-30T06:28:39.138Z,92.20
2022-07-30T06:31:07.697Z,87.40
2022-07-30T06:33:34.891Z,80.50
2022-07-30T06:36:01.879Z,83.70
2022-07-30T06:38:28.767Z,82.80
2022-07-30T06:41:00.529Z,75.30
2022-07-30T06:43:29.635Z,73.00
2022-07-30T06:45:56.552Z,74.50
2022-07-30T06:48:23.606Z,72.50
2022-07-30T06:50:50.550Z,73.90
2022-07-30T06:53:17.476Z,68.30
2022-07-30T06:55:44.491Z,72.50
2022-07-30T06:58:11.306Z,71.60
2022-07-30T07:00:38.146Z,68.80
2022-07-30T07:03:07.537Z,67.80
2022-07-30T07:05:41.118Z,65.60
2022-07-30T07:08:10.787Z,59.90
2022-07-30T07:10:37.730Z,58.40
2022-07-30T07:13:04.559Z,60.20
2022-07-30T07:15:36.720Z,58.30
2022-07-30T07:18:07.259Z,59.60
2022-07-30T07:20:37.130Z,54.40
2022-07-30T07:23:12.028Z,56.80
2022-07-30T07:25:40.205Z,54.30
2022-07-30T07:28:11.274Z,58.00
2022-07-30T07:30:43.494Z,60.20
2022-07-30T07:33:15.433Z,60.20
2022-07-30T07:35:49.684Z,62.00
2022-07-30T07:38:18.551Z,61.30
2022-07-30T07:40:46.133Z,51.60
2022-07-30T07:43:13.650Z,59.00
2022-07-30T07:45:42.420Z,48.20
2022-07-30T07:48:09.420Z,49.70
2022-07-30T07:50:36.332Z,48.90
2022-07-30T07:53:03.202Z,47.60
2022-07-30T07:55:31.660Z,47.00
2022-07-30T07:58:00.910Z,52.50
2022-07-30T08:00:27.954Z,46.00
2022-07-30T08:02:55.144Z,49.80
2022-07-30T08:05:23.258Z,46.70
2022-07-30T08:07:50.554Z,44.00
2022-07-30T08:10:17.464Z,45.70
2022-07-30T08:12:44.614Z,40.80
2022-07-30T08:15:11.731Z,42.20
2022-07-30T08:17:42.446Z,45.70
2022-07-30T08:20:11.049Z,38.50
2022-07-30T08:22:38.251Z,43.30
2022-07-30T08:25:05.811Z,41.00
2022-07-30T08:27:32.660Z,40.40
2022-07-30T08:30:06.762Z,39.50
2022-07-30T08:32:33.950Z,40.30
2022-07-30T08:35:00.813Z,38.10
2022-07-30T08:37:28.005Z,35.30
2022-07-30T08:39:54.804Z,32.90
2022-07-30T08:42:23.202Z,30.80
2022-07-30T08:44:51.785Z,33.00
2022-07-30T08:47:20.930Z,36.90
2022-07-30T08:49:49.146Z,30.10
2022-07-30T08:52:16.033Z,29.40
2022-07-30T08:54:44.025Z,22.50
2022-07-30T08:57:11.946Z,23.70
2022-07-30T08:59:59.387Z,21.30
2022-07-30T09:02:29.219Z,18.80
2022-07-30T09:04:56.541Z,21.80
2022-07-30T09:07:23.596Z,24.70
2022-07-30T09:09:50.537Z,25.70
2022-07-30T09:12:34.963Z,25.50
2022-07-30T09:15:28.551Z,27.20
2022-07-30T09:18:03.185Z,23.30
2022-07-30T09:20:34.921Z,22.40
2022-07-30T09:23:04.206Z,20.30
2022-07-30T09:25:48.389Z,25.10
2022-07-30T09:28:16.723Z,23.90
2022-07-30T09:30:49.861Z,23.70
2022-07-30T09:33:41.773Z,17.10
2022-07-30T09:36:13.768Z,20.20
2022-07-30T09:38:53.929Z,19.40
2022-07-30T09:41:38.922Z,17.10
2022-07-30T09:44:07.186Z,20.70
2022-07-30T09:46:50.994Z,20.10
2022-07-30T09:49:23.007Z,15.30
2022-07-30T09:51:56.278Z,14.90
2022-07-30T09:54:25.343Z,12.30
2022-07-30T09:57:06.438Z,12.10
2022-07-30T09:59:50.321Z,15.10
2022-07-30T10:02:17.273Z,14.20
2022-07-30T10:04:44.200Z,13.80
2022-07-30T10:07:25.268Z,8.60
2022-07-30T10:09:54.228Z,7.90
2022-07-30T10:12:24.007Z,7.50
2022-07-30T10:14:53.731Z,8.10
2022-07-30T10:17:22.193Z,9.00
2022-07-30T10:19:49.144Z,5.00
2022-07-30T10:22:17.071Z,6.10
2022-07-30T10:24:45.949Z,5.00
2022-07-30T10:27:13.373Z,5.00
2022-07-30T10:29:42.835Z,5.00
2022-07-30T10:32:09.944Z,5.00
2022-07-30T10:34:42.596Z,5.00
2022-07-30T10:37:12.416Z,7.80
2022-07-30T10:39:47.322Z,5.00
2022-07-30T10:42:28.855Z,5.40
2022-07-30T10:45:17.180Z,5.00
2022-07-30T10:47:49.121Z,5.00
2022-07-30T10:50:19.540Z,5.00
2022-07-30T10:52:54.079Z,5.00
2022-07-30T10:55:37.557Z,5.00
2022-07-30T10:58:15.830Z,5.20
2022-07-30T11:00:53.899Z,5.00
2022-07-30T11:03:38.777Z,5.00
2022-07-30T11:06:16.997Z,5.00
2022-07-30T11:08:51.710Z,5.00
2022-07-30T11:11:59.371Z,5.00
2022-07-30T11:14:08.239Z,5.00
2022-07-30T11:16:35.009Z,5.00
2022-07-30T11:19:56.708Z,5.00
2022-07-30T11:22:22.086Z,5.00
2022-07-30T11:24:50.950Z,5.00
2022-07-30T11:27:38.850Z,5.00
2022-07-30T11:30:17.958Z,5.00
2022-07-30T11:32:48.661Z,5.00
2022-07-30T11:35:25.549Z,5.00
2022-07-30T11:38:03.063Z,5.00
2022-07-30T11:40:58.941Z,5.00
2022-07-30T11:43:36.254Z,5.00
2022-07-30T11:46:34.448Z,5.00
2022-07-30T11:49:08.639Z,5.00
2022-07-30T11:51:43.881Z,5.00
2022-07-30T11:54:11.767Z,5.00
2022-07-30T11:57:04.268Z,5.00
2022-07-30T11:59:31.663Z,5.00
2022-07-30T12:02:01.758Z,5.00
2022-07-30T12:04:29.789Z,5.00
2022-07-30T12:06:56.699Z,5.00
2022-07-30T12:09:27.347Z,5.00
2022-07-30T12:11:57.743Z,5.00
2022-07-30T12:14:24.813Z,5.00
2022-07-30T12:16:55.079Z,5.00
2022-07-30T12:19:22.038Z,5.00
2022-07-30T12:21:52.982Z,5.00
2022-07-30T12:24:26.080Z,5.00
2022-07-30T12:26:53.179Z,5.00
2022-07-30T12:29:20.304Z,5.00
2022-07-30T12:31:47.868Z,5.00
2022-07-30T12:34:25.450Z,5.00
2022-07-30T12:36:53.014Z,5.00
2022-07-30T12:39:24.857Z,5.00
2022-07-30T12:41:53.660Z,5.00
2022-07-30T12:44:41.688Z,5.00
2022-07-30T12:47:26.248Z,5.00
2022-07-30T12:49:54.600Z,5.00
2022-07-30T12:52:28.272Z,5.00
2022-07-30T12:55:09.578Z,5.00
2022-07-30T12:57:55.690Z,5.00
2022-07-30T13:00:24.958Z,5.00
2022-07-30T13:02:52.314Z,5.00
2022-07-30T13:05:19.406Z,5.00
2022-07-30T13:07:54.146Z,5.00
2022-07-30T13:10:21.186Z,5.00
2022-07-30T13:12:48.037Z,5.00
2022-07-30T13:15:22.408Z,5.00
2022-07-30T13:17:49.738Z,5.00
2022-07-30T13:20:17.779Z,5.00
2022-07-30T13:22:44.867Z,5.00
2022-07-30T13:25:11.797Z,5.00
2022-07-30T13:27:39.026Z,5.00
2022-07-30T13:30:06.898Z,5.00
2022-07-30T13:32:33.995Z,5.00
2022-07-30T13:35:01.855Z,5.00
2022-07-30T13:37:38.045Z,5.00
2022-07-30T13:40:07.091Z,5.00
2022-07-30T13:42:34.097Z,5.00
2022-07-30T13:45:01.059Z,5.00
2022-07-30T13:47:28.017Z,5.00
2022-07-30T13:49:54.913Z,5.00
2022-07-30T13:52:21.730Z,5.00
2022-07-30T13:54:50.825Z,5.00
2022-07-30T13:57:17.810Z,5.00
2022-07-30T13:59:44.656Z,5.00
2022-07-30T14:02:11.631Z,5.00
2022-07-30T14:04:38.559Z,5.00
2022-07-30T14:07:05.655Z,5.00
2022-07-30T14:09:33.169Z,5.00
2022-07-30T14:12:11.395Z,5.00
2022-07-30T14:14:39.129Z,5.00
2022-07-30T14:17:06.238Z,5.00
2022-07-30T14:19:38.867Z,5.00
2022-07-30T14:22:07.921Z,5.00
2022-07-30T14:24:34.723Z,5.00
2022-07-30T14:27:04.609Z,5.00
2022-07-30T14:29:31.915Z,5.00
2022-07-30T14:31:58.851Z,5.00
2022-07-30T14:34:25.714Z,5.00
2022-07-30T14:36:55.840Z,5.00
2022-07-30T14:39:28.850Z,5.00
2022-07-30T14:41:58.763Z,5.00
2022-07-30T14:44:32.875Z,5.00
2022-07-30T14:47:03.165Z,5.00
2022-07-30T14:49:30.722Z,5.00
2022-07-30T14:51:59.022Z,5.00
2022-07-30T14:54:27.897Z,5.00
2022-07-30T14:56:58.615Z,5.00
2022-07-30T14:59:30.247Z,5.00
2022-07-30T15:01:57.371Z,5.00
2022-07-30T15:04:24.317Z,5.00
2022-07-30T15:06:55.080Z,5.00
2022-07-30T15:09:22.087Z,5.00
2022-07-30T15:12:08.314Z,5.00
2022-07-30T15:14:40.937Z,5.00
2022-07-30T15:17:08.182Z,5.00
2022-07-30T15:19:35.049Z,5.00
2022-07-30T15:22:02.907Z,5.00
2022-07-30T15:24:31.462Z,5.00
2022-07-30T15:26:59.044Z,5.00
2022-07-30T15:29:29.373Z,5.00
2022-07-30T15:31:57.076Z,5.00
2022-07-30T15:34:25.109Z,5.00
2022-07-30T15:36:57.513Z,5.00
2022-07-30T15:39:31.820Z,5.00
2022-07-30T15:42:02.844Z,5.00
2022-07-30T15:44:32.728Z,5.00
2022-07-30T15:47:00.725Z,5.00
2022-07-30T15:49:30.398Z,5.00
2022-07-30T15:52:01.385Z,5.00
2022-07-30T15:54:31.583Z,5.00
2022-07-30T15:57:01.794Z,5.00
2022-07-30T15:59:31.674Z,5.00
2022-07-30T16:02:03.390Z,5.00
2022-07-30T16:04:35.838Z,5.00
2022-07-30T16:07:04.520Z,5.00
2022-07-30T16:09:40.562Z,5.00
2022-07-30T16:12:07.864Z,5.00
2022-07-30T16:14:37.986Z,5.00
2022-07-30T16:17:11.791Z,5.00
2022-07-30T16:19:46.459Z,5.00
2022-07-30T16:22:15.004Z,5.00
2022-07-30T16:24:48.873Z,5.00
2022-07-30T16:27:22.370Z,5.00
2022-07-30T16:29:49.161Z,5.00
2022-07-30T16:32:18.736Z,5.00
2022-07-30T16:34:45.610Z,5.00
2022-07-30T16:37:18.655Z,5.00
2022-07-30T16:39:48.675Z,5.00
2022-07-30T16:42:15.634Z,5.00
2022-07-30T16:44:42.536Z,5.00
2022-07-30T16:47:20.545Z,5.00
2022-07-30T16:49:47.458Z,5.00
2022-07-30T16:52:20.216Z,5.00
2022-07-30T16:54:47.122Z,5.00
2022-07-30T16:57:19.924Z,5.00
2022-07-30T16:59:46.755Z,5.00
2022-07-30T17:02:13.666Z,5.00
2022-07-30T17:04:44.156Z,5.00
2022-07-30T17:07:11.086Z,5.00
2022-07-30T17:09:40.331Z,5.00
2022-07-30T17:12:12.442Z,5.00
2022-07-30T17:14:42.609Z,5.00
2022-07-30T17:17:13.819Z,5.00
2022-07-30T17:19:43.578Z,5.00
2022-07-30T17:22:10.683Z,5.00
2022-07-30T17:24:37.859Z,5.00
2022-07-30T17:27:04.759Z,5.00
2022-07-30T17:29:49.612Z,5.00
2022-07-30T17:32:24.172Z,5.00
2022-07-30T17:34:57.702Z,5.10
2022-07-30T17:37:31.302Z,5.00
2022-07-30T17:40:27.064Z,6.00
2022-07-30T17:42:50.633Z,7.30
2022-07-30T17:45:17.535Z,7.80
2022-07-30T17:47:47.310Z,8.30
2022-07-30T17:50:19.781Z,8.30
2022-07-30T17:52:47.894Z,8.50
2022-07-30T17:55:14.779Z,9.00
2022-07-30T17:57:41.616Z,9.60
2022-07-30T18:00:11.816Z,10.50
2022-07-30T18:02:44.420Z,12.00
2022-07-30T18:05:14.424Z,13.00
2022-07-30T18:07:47.264Z,12.70
2022-07-30T18:10:14.255Z,11.70
2022-07-30T18:12:48.625Z,10.90
2022-07-30T18:15:17.652Z,12.90
2022-07-30T18:17:48.426Z,16.10
2022-07-30T18:20:19.098Z,16.20
2022-07-30T18:22:45.926Z,16.50
2022-07-30T18:25:23.211Z,17.10
2022-07-30T18:27:53.136Z,17.90
2022-07-30T18:30:19.977Z,16.60
2022-07-30T18:32:50.213Z,16.50
2022-07-30T18:35:19.050Z,17.30
2022-07-30T18:37:46.694Z,17.90
2022-07-30T18:40:23.383Z,17.80
2022-07-30T18:42:53.966Z,18.60
2022-07-30T18:45:20.957Z,19.10
2022-07-30T18:47:50.226Z,18.20
2022-07-30T18:50:20.544Z,19.50
2022-07-30T18:52:47.671Z,19.60
2022-07-30T18:55:14.986Z,19.40
2022-07-30T18:57:41.896Z,19.70
2022-07-30T19:00:30.941Z,19.20
2022-07-30T19:03:02.815Z,20.60
2022-07-30T19:05:34.834Z,20.50
2022-07-30T19:08:05.870Z,21.20
2022-07-30T19:10:35.410Z,21.60
2022-07-30T19:13:03.360Z,22.30
2022-07-30T19:15:32.851Z,22.40
2022-07-30T19:17:59.749Z,21.90
2022-07-30T19:20:28.371Z,22.40
2022-07-30T19:23:10.500Z,22.50
2022-07-30T19:25:43.017Z,22.50
2022-07-30T19:28:11.658Z,22.30
2022-07-30T19:30:38.478Z,22.70
2022-07-30T19:33:12.530Z,23.20
2022-07-30T19:35:41.848Z,23.70
2022-07-30T19:38:09.877Z,24.00
2022-07-30T19:40:39.617Z,24.80
2022-07-30T19:43:12.874Z,24.90
2022-07-30T19:45:46.693Z,25.20
2022-07-30T19:48:13.972Z,25.30
2022-07-30T19:50:43.405Z,26.20
2022-07-30T19:53:15.724Z,26.50
2022-07-30T19:55:42.677Z,27.10
2022-07-30T19:58:16.470Z,27.10
2022-07-30T20:00:49.268Z,27.10
2022-07-30T20:03:25.356Z,26.80
2022-07-30T20:05:58.383Z,26.20
2022-07-30T20:08:27.175Z,26.90
2022-07-30T20:10:57.773Z,27.50
2022-07-30T20:13:45.310Z,27.60
2022-07-30T20:16:14.485Z,28.40
2022-07-30T20:18:42.963Z,28.20
2022-07-30T20:21:14.875Z,28.00
2022-07-30T20:23:42.831Z,27.70
2022-07-30T20:26:13.937Z,29.80
2022-07-30T20:28:43.243Z,27.80
2022-07-30T20:31:11.844Z,28.60
2022-07-30T20:33:40.125Z,28.90
2022-07-30T20:36:09.862Z,29.90
2022-07-30T20:38:38.786Z,29.30
2022-07-30T20:41:09.996Z,29.40
2022-07-30T20:43:51.420Z,30.80
2022-07-30T20:46:20.433Z,30.30
2022-07-30T20:48:49.921Z,29.90
2022-07-30T20:51:16.811Z,30.40
2022-07-30T20:53:45.238Z,29.50
2022-07-30T20:56:13.564Z,30.30
2022-07-30T20:58:59.633Z,30.20
2022-07-30T21:01:28.710Z,31.20
2022-07-30T21:03:57.706Z,30.40
2022-07-30T21:06:26.249Z,31.10
2022-07-30T21:08:55.304Z,32.00
2022-07-30T21:11:23.477Z,30.90
2022-07-30T21:13:50.530Z,32.10
2022-07-30T21:16:21.551Z,33.30
2022-07-30T21:18:50.482Z,32.60
2022-07-30T21:21:29.291Z,33.30
2022-07-30T21:24:06.172Z,33.80
2022-07-30T21:26:41.745Z,33.50
2022-07-30T21:29:09.513Z,33.00
2022-07-30T21:32:00.553Z,33.80
2022-07-30T21:34:26.461Z,34.60
2022-07-30T21:36:54.347Z,33.10
2022-07-30T21:42:09.405Z,34.50
2022-07-30T21:44:38.044Z,34.40
2022-07-30T21:47:08.412Z,34.50
2022-07-30T21:49:37.122Z,34.60
2022-07-30T21:52:05.000Z,34.50
2022-07-30T21:54:45.226Z,33.10
2022-07-30T21:57:16.290Z,35.20
2022-07-30T21:59:53.912Z,35.10
2022-07-30T22:02:23.226Z,35.10
2022-07-30T22:04:51.632Z,35.30
2022-07-30T22:07:18.504Z,36.30
2022-07-30T22:09:48.969Z,36.50
2022-07-30T22:12:18.266Z,35.40
2022-07-30T22:14:45.396Z,36.00
2022-07-30T22:17:23.512Z,35.50
2022-07-30T22:20:03.934Z,36.00
2022-07-30T22:22:36.285Z,34.80
2022-07-30T22:25:06.795Z,35.50
2022-07-30T22:27:39.991Z,35.00
2022-07-30T22:30:24.242Z,35.70
2022-07-30T22:32:54.122Z,36.00
2022-07-30T22:35:34.078Z,34.70
2022-07-30T22:38:02.410Z,35.60
2022-07-30T22:40:29.768Z,35.30
2022-07-30T22:42:56.710Z,35.50
2022-07-30T22:45:36.038Z,35.60
2022-07-30T22:48:14.008Z,34.60
2022-07-30T22:50:40.925Z,34.20
2022-07-30T22:54:02.849Z,35.40
2022-07-30T22:55:56.025Z,35.40
2022-07-30T22:58:24.250Z,35.40
2022-07-30T23:00:53.408Z,34.30
2022-07-30T23:03:20.362Z,35.00
2022-07-30T23:05:55.988Z,34.30
2022-07-30T23:08:30.291Z,35.30
2022-07-30T23:10:59.741Z,35.10
2022-07-30T23:12:33.211Z,34.10
2022-07-30T23:13:27.544Z,34.80
2022-07-30T23:15:54.366Z,36.10
2022-07-30T23:18:24.126Z,35.50
2022-07-30T23:20:51.028Z,36.30
2022-07-30T23:23:17.994Z,36.10
2022-07-30T23:25:45.180Z,35.80
2022-07-30T23:28:11.968Z,35.20
2022-07-30T23:30:38.797Z,35.80
2022-07-30T23:33:05.744Z,36.30
2022-07-30T23:35:33.477Z,36.10
2022-07-30T23:38:00.338Z,36.20
2022-07-30T23:40:28.412Z,36.00
2022-07-30T23:42:55.364Z,36.20
2022-07-30T23:45:22.221Z,36.10
2022-07-30T23:47:55.969Z,36.00
2022-07-30T23:50:31.699Z,36.40
2022-07-30T23:52:58.692Z,36.70
2022-07-30T23:55:27.168Z,36.60
2022-07-30T23:57:54.438Z,36.10
